createdAt,value
2019-02-09T00:02:05.050Z,15.83
2019-02-09T00:04:35.389Z,17.87
2019-02-09T00:07:05.738Z,15.07
2019-02-09T00:09:35.533Z,21.53
2019-02-09T00:12:05.887Z,16.00
2019-02-09T00:14:35.994Z,12.87
2019-02-09T00:17:06.402Z,12.30
2019-02-09T00:19:36.664Z,19.17
2019-02-09T00:22:07.700Z,17.83
2019-02-09T00:24:37.671Z,18.00
2019-02-09T00:27:07.723Z,15.47
2019-02-09T00:29:45.896Z,16.03
2019-02-09T00:32:10.105Z,14.30
2019-02-09T00:34:40.228Z,14.00
2019-02-09T00:37:10.160Z,15.47
2019-02-09T00:39:40.633Z,11.77
2019-02-09T00:42:10.692Z,17.50
2019-02-09T00:44:40.680Z,19.23
2019-02-09T00:47:10.612Z,16.10
2019-02-09T00:49:40.596Z,14.00
2019-02-09T00:52:10.986Z,17.90
2019-02-09T00:54:41.041Z,17.60
2019-02-09T00:57:10.862Z,19.10
2019-02-09T00:59:40.938Z,16.87
2019-02-09T01:02:11.356Z,13.67
2019-02-09T01:04:41.346Z,16.10
2019-02-09T01:07:11.223Z,15.30
2019-02-09T01:09:41.461Z,16.27
2019-02-09T01:12:11.376Z,14.00
2019-02-09T01:14:41.389Z,14.97
2019-02-09T01:17:11.299Z,17.20
2019-02-09T01:19:41.824Z,15.57
2019-02-09T01:22:12.013Z,14.90
2019-02-09T01:24:41.929Z,15.83
2019-02-09T01:27:12.232Z,14.93
2019-02-09T01:29:42.345Z,16.10
2019-02-09T01:32:12.355Z,17.63
2019-02-09T01:34:42.280Z,18.43
2019-02-09T01:37:12.180Z,16.90
2019-02-09T01:39:42.198Z,17.70
2019-02-09T01:42:12.302Z,19.47
2019-02-09T01:44:42.256Z,16.97
2019-02-09T01:47:12.131Z,18.63
2019-02-09T01:49:42.204Z,17.30
2019-02-09T01:52:12.350Z,15.63
2019-02-09T01:54:42.282Z,15.87
2019-02-09T01:57:12.768Z,18.73
2019-02-09T01:59:42.802Z,14.40
2019-02-09T02:02:12.692Z,15.77
2019-02-09T02:04:43.145Z,16.30
2019-02-09T02:07:13.600Z,17.10
2019-02-09T02:09:43.593Z,16.37
2019-02-09T02:12:14.560Z,18.13
2019-02-09T02:14:45.110Z,17.27
2019-02-09T02:17:15.514Z,20.23
2019-02-09T02:19:45.527Z,21.13
2019-02-09T02:22:15.639Z,23.57
2019-02-09T02:24:45.555Z,19.73
2019-02-09T02:27:15.860Z,23.00
2019-02-09T02:29:45.775Z,21.03
2019-02-09T02:32:15.813Z,21.00
2019-02-09T02:34:46.093Z,19.73
2019-02-09T02:37:16.106Z,22.57
2019-02-09T02:39:46.014Z,18.90
2019-02-09T02:42:16.039Z,23.47
2019-02-09T02:44:46.038Z,18.87
2019-02-09T02:47:16.053Z,22.93
2019-02-09T02:49:46.062Z,22.20
2019-02-09T02:52:15.979Z,22.07
2019-02-09T02:54:46.870Z,19.90
2019-02-09T02:57:16.784Z,20.93
2019-02-09T02:59:46.701Z,20.60
2019-02-09T03:02:16.550Z,22.27
2019-02-09T03:04:46.937Z,18.10
2019-02-09T03:07:16.852Z,18.63
2019-02-09T03:09:46.844Z,18.97
2019-02-09T03:12:16.866Z,20.67
2019-02-09T03:14:46.870Z,22.00
2019-02-09T03:17:16.939Z,20.80
2019-02-09T03:19:46.945Z,30.93
2019-02-09T03:22:16.903Z,42.20
2019-02-09T03:24:46.815Z,55.17
2019-02-09T03:27:16.760Z,48.10
2019-02-09T03:29:47.038Z,48.83
2019-02-09T03:32:17.246Z,42.30
2019-02-09T03:34:47.256Z,38.87
2019-02-09T03:37:17.182Z,39.87
2019-02-09T03:39:47.485Z,39.17
2019-02-09T03:42:17.881Z,38.30
2019-02-09T03:44:47.921Z,31.27
2019-02-09T03:47:17.840Z,25.63
2019-02-09T03:49:48.318Z,27.50
2019-02-09T03:52:18.649Z,22.87
2019-02-09T03:54:48.633Z,23.83
2019-02-09T03:57:19.174Z,21.77
2019-02-09T03:59:49.536Z,20.17
2019-02-09T04:02:19.446Z,23.87
2019-02-09T04:04:49.857Z,21.30
2019-02-09T04:07:19.852Z,22.10
2019-02-09T04:09:49.992Z,21.30
2019-02-09T04:12:20.089Z,22.23
2019-02-09T04:14:50.197Z,22.83
2019-02-09T04:17:20.310Z,22.47
2019-02-09T04:19:50.208Z,22.07
2019-02-09T04:22:20.440Z,18.63
2019-02-09T04:24:51.145Z,20.43
2019-02-09T04:27:21.241Z,21.73
2019-02-09T04:29:51.177Z,19.60
2019-02-09T04:32:21.268Z,22.83
2019-02-09T04:34:51.181Z,20.60
2019-02-09T04:37:21.220Z,21.33
2019-02-09T04:39:51.730Z,23.70
2019-02-09T04:42:22.297Z,23.27
2019-02-09T04:44:52.504Z,21.40
2019-02-09T04:47:22.541Z,20.90
2019-02-09T04:49:52.531Z,25.47
2019-02-09T04:52:22.736Z,22.80
2019-02-09T04:54:52.942Z,23.73
2019-02-09T04:57:22.851Z,22.63
2019-02-09T04:59:52.701Z,21.40
2019-02-09T05:02:23.477Z,24.13
2019-02-09T05:04:53.279Z,20.93
2019-02-09T05:07:23.270Z,24.27
2019-02-09T05:09:53.610Z,20.67
2019-02-09T05:12:23.685Z,24.10
2019-02-09T05:14:53.739Z,23.13
2019-02-09T05:17:23.737Z,24.00
2019-02-09T05:19:53.749Z,22.87
2019-02-09T05:22:23.971Z,21.33
2019-02-09T05:24:53.938Z,21.77
2019-02-09T05:27:23.817Z,22.27
2019-02-09T05:29:54.216Z,18.57
2019-02-09T05:32:24.383Z,20.97
2019-02-09T05:34:54.183Z,21.17
2019-02-09T05:37:24.020Z,24.03
2019-02-09T05:39:53.982Z,24.80
2019-02-09T05:42:24.291Z,27.20
2019-02-09T05:44:54.360Z,24.87
2019-02-09T05:47:24.203Z,25.37
2019-02-09T05:49:54.285Z,23.00
2019-02-09T05:52:24.396Z,22.63
2019-02-09T05:54:54.793Z,21.87
2019-02-09T05:57:24.614Z,23.90
2019-02-09T05:59:54.626Z,21.67
2019-02-09T06:02:25.244Z,24.03
2019-02-09T06:04:55.204Z,22.03
2019-02-09T06:07:26.038Z,22.87
2019-02-09T06:09:55.891Z,21.50
2019-02-09T06:12:25.799Z,22.40
2019-02-09T06:14:55.678Z,21.70
2019-02-09T06:17:26.033Z,20.57
2019-02-09T06:19:55.997Z,23.87
2019-02-09T06:22:25.914Z,22.93
2019-02-09T06:24:55.856Z,29.27
2019-02-09T06:27:25.964Z,27.10
2019-02-09T06:29:56.156Z,22.90
2019-02-09T06:32:26.326Z,20.63
2019-02-09T06:34:56.269Z,23.87
2019-02-09T06:37:26.277Z,22.83
2019-02-09T06:39:56.230Z,21.43
2019-02-09T06:42:26.467Z,22.77
2019-02-09T06:44:56.510Z,21.50
2019-02-09T06:47:26.526Z,21.63
2019-02-09T06:49:56.731Z,18.73
2019-02-09T06:52:26.742Z,22.77
2019-02-09T06:54:56.763Z,20.03
2019-02-09T06:57:26.966Z,21.23
2019-02-09T06:59:56.895Z,22.17
2019-02-09T07:02:27.040Z,20.43
2019-02-09T07:04:57.085Z,21.47
2019-02-09T07:07:27.008Z,22.60
2019-02-09T07:09:57.022Z,21.97
2019-02-09T07:12:27.433Z,18.27
2019-02-09T07:14:57.443Z,18.20
2019-02-09T07:17:27.449Z,20.27
2019-02-09T07:19:57.755Z,20.10
2019-02-09T07:22:27.676Z,21.63
2019-02-09T07:24:57.498Z,21.73
2019-02-09T07:27:27.378Z,20.10
2019-02-09T07:29:57.572Z,21.77
2019-02-09T07:32:27.776Z,21.50
2019-02-09T07:34:57.729Z,23.43
2019-02-09T07:37:27.756Z,22.27
2019-02-09T07:39:57.753Z,28.27
2019-02-09T07:42:27.960Z,23.70
2019-02-09T07:44:57.896Z,26.63
2019-02-09T07:47:28.087Z,24.37
2019-02-09T07:49:58.096Z,25.70
2019-02-09T07:52:28.011Z,35.67
2019-02-09T07:54:58.079Z,33.53
2019-02-09T07:57:27.903Z,30.07
2019-02-09T07:59:57.845Z,27.07
2019-02-09T08:02:27.782Z,24.90
2019-02-09T08:04:57.771Z,26.83
2019-02-09T08:07:27.788Z,30.10
2019-02-09T08:09:58.102Z,35.17
2019-02-09T08:12:28.102Z,41.10
2019-02-09T08:14:58.362Z,34.20
2019-02-09T08:17:28.322Z,41.77
2019-02-09T08:19:58.335Z,80.27
2019-02-09T08:22:28.549Z,80.53
2019-02-09T08:24:58.774Z,38.37
2019-02-09T08:27:28.994Z,27.40
2019-02-09T08:29:59.081Z,26.17
2019-02-09T08:32:29.084Z,24.80
2019-02-09T08:34:59.675Z,25.40
2019-02-09T08:37:29.598Z,23.50
2019-02-09T08:39:59.776Z,24.47
2019-02-09T08:42:29.850Z,23.03
2019-02-09T08:44:59.834Z,25.60
2019-02-09T08:47:29.741Z,22.53
2019-02-09T08:49:59.854Z,28.03
2019-02-09T08:52:30.259Z,26.17
2019-02-09T08:55:00.318Z,21.10
2019-02-09T08:57:30.285Z,20.97
2019-02-09T09:00:00.207Z,25.67
2019-02-09T09:02:30.403Z,19.37
2019-02-09T09:05:00.780Z,21.07
2019-02-09T09:07:30.722Z,20.33
2019-02-09T09:10:00.637Z,19.17
2019-02-09T09:12:30.550Z,17.27
2019-02-09T09:15:00.953Z,21.20
2019-02-09T09:17:30.867Z,22.80
2019-02-09T09:20:00.786Z,18.07
2019-02-09T09:22:30.792Z,18.03
2019-02-09T09:25:01.338Z,22.63
2019-02-09T09:27:31.475Z,22.13
2019-02-09T09:30:02.535Z,20.90
2019-02-09T09:32:32.516Z,19.20
2019-02-09T09:35:03.308Z,19.83
2019-02-09T09:37:33.223Z,17.37
2019-02-09T09:40:03.335Z,15.57
2019-02-09T09:42:33.441Z,17.33
2019-02-09T09:45:05.528Z,13.73
2019-02-09T09:47:35.826Z,18.00
2019-02-09T09:50:10.851Z,17.07
2019-02-09T09:52:41.058Z,16.53
2019-02-09T09:55:12.259Z,16.10
2019-02-09T09:57:42.459Z,15.00
2019-02-09T10:00:24.956Z,16.20
2019-02-09T10:02:55.272Z,13.93
2019-02-09T10:05:26.507Z,13.93
2019-02-09T10:07:56.860Z,16.33
2019-02-09T10:10:27.281Z,14.67
2019-02-09T10:12:57.177Z,15.07
2019-02-09T10:15:30.488Z,14.70
2019-02-09T10:18:00.545Z,14.93
2019-02-09T10:20:30.952Z,13.63
2019-02-09T10:23:00.874Z,10.40
2019-02-09T10:25:30.876Z,14.30
2019-02-09T10:28:00.983Z,11.10
2019-02-09T10:30:36.021Z,17.53
2019-02-09T10:33:05.930Z,14.17
2019-02-09T10:35:35.935Z,13.20
2019-02-09T10:38:06.248Z,12.67
2019-02-09T10:40:37.960Z,13.33
2019-02-09T10:43:09.898Z,12.93
2019-02-09T10:45:39.818Z,14.17
2019-02-09T10:48:10.025Z,12.87
2019-02-09T10:50:50.065Z,11.67
2019-02-09T10:53:19.976Z,15.80
2019-02-09T10:55:49.889Z,12.33
2019-02-09T10:58:19.803Z,13.03
2019-02-09T11:01:00.332Z,8.63
2019-02-09T11:03:30.249Z,11.70
2019-02-09T11:06:00.170Z,11.03
2019-02-09T11:08:30.176Z,9.83
2019-02-09T11:11:00.282Z,11.67
2019-02-09T11:13:31.526Z,11.30
2019-02-09T11:16:02.029Z,12.80
2019-02-09T11:18:31.989Z,9.80
2019-02-09T11:21:01.999Z,8.73
2019-02-09T11:23:31.918Z,11.37
2019-02-09T11:26:02.222Z,11.33
2019-02-09T11:28:32.528Z,11.20
2019-02-09T11:31:02.638Z,12.13
2019-02-09T11:33:32.650Z,11.90
2019-02-09T11:36:02.665Z,11.13
2019-02-09T11:38:32.585Z,10.37
2019-02-09T11:41:02.393Z,11.10
2019-02-09T11:43:32.339Z,11.10
2019-02-09T11:46:02.314Z,9.63
2019-02-09T11:48:32.427Z,10.47
2019-02-09T11:51:02.339Z,10.23
2019-02-09T11:53:33.045Z,8.93
2019-02-09T11:56:03.259Z,9.47
2019-02-09T11:58:33.264Z,9.67
2019-02-09T12:01:03.171Z,11.37
2019-02-09T12:03:33.610Z,10.00
2019-02-09T12:06:03.688Z,8.83
2019-02-09T12:08:33.658Z,12.03
2019-02-09T12:11:03.816Z,10.47
2019-02-09T12:13:33.957Z,11.53
2019-02-09T12:16:04.135Z,9.03
2019-02-09T12:18:33.975Z,10.83
2019-02-09T12:21:04.389Z,7.70
2019-02-09T12:23:34.720Z,9.03
2019-02-09T12:26:05.158Z,7.60
2019-02-09T12:28:35.201Z,8.43
2019-02-09T12:31:05.057Z,8.67
2019-02-09T12:33:35.193Z,9.83
2019-02-09T12:36:05.708Z,8.80
2019-02-09T12:38:36.046Z,8.53
2019-02-09T12:41:06.325Z,7.70
2019-02-09T12:43:36.291Z,7.73
2019-02-09T12:46:06.564Z,6.33
2019-02-09T12:48:37.071Z,7.63
2019-02-09T12:51:07.168Z,5.13
2019-02-09T12:53:37.558Z,4.53
2019-02-09T12:56:07.576Z,6.20
2019-02-09T12:58:38.403Z,7.53
2019-02-09T13:01:09.058Z,7.07
2019-02-09T13:03:39.577Z,8.10
2019-02-09T13:06:09.551Z,5.53
2019-02-09T13:08:39.682Z,6.37
2019-02-09T13:11:09.799Z,6.87
2019-02-09T13:13:39.707Z,7.77
2019-02-09T13:16:09.655Z,6.10
2019-02-09T13:18:39.476Z,5.97
2019-02-09T13:21:09.467Z,5.47
2019-02-09T13:23:40.046Z,6.90
2019-02-09T13:26:10.163Z,6.33
2019-02-09T13:28:40.026Z,6.13
2019-02-09T13:31:10.675Z,11.13
2019-02-09T13:33:40.881Z,7.60
2019-02-09T13:36:10.891Z,9.53
2019-02-09T13:38:41.302Z,10.33
2019-02-09T13:41:11.118Z,9.67
2019-02-09T13:43:41.322Z,4.77
2019-02-09T13:46:11.333Z,5.33
2019-02-09T13:48:41.246Z,5.27
2019-02-09T13:51:11.367Z,6.53
2019-02-09T13:53:41.917Z,5.17
2019-02-09T13:56:13.200Z,5.40
2019-02-09T13:58:43.455Z,4.90
2019-02-09T14:01:13.564Z,5.17
2019-02-09T14:03:46.974Z,4.03
2019-02-09T14:06:15.750Z,4.80
2019-02-09T14:08:46.073Z,5.33
2019-02-09T14:11:16.080Z,4.47
2019-02-09T14:13:46.278Z,5.10
2019-02-09T14:16:16.625Z,5.73
2019-02-09T14:18:48.171Z,4.00
2019-02-09T14:21:18.574Z,5.83
2019-02-09T14:23:48.489Z,4.23
2019-02-09T14:26:19.091Z,4.80
2019-02-09T14:28:49.400Z,3.20
2019-02-09T14:31:20.993Z,4.67
2019-02-09T14:33:55.023Z,5.93
2019-02-09T14:36:22.576Z,4.67
2019-02-09T14:38:52.591Z,4.90
2019-02-09T14:41:22.756Z,4.33
2019-02-09T14:43:52.594Z,3.93
2019-02-09T14:46:22.660Z,8.93
2019-02-09T14:48:52.574Z,5.53
2019-02-09T14:51:22.551Z,3.50
2019-02-09T14:53:52.503Z,3.00
2019-02-09T14:56:22.669Z,4.23
2019-02-09T14:58:52.714Z,4.90
2019-02-09T15:01:23.346Z,2.83
2019-02-09T15:03:53.558Z,2.73
2019-02-09T15:06:23.524Z,2.83
2019-02-09T15:08:53.734Z,4.33
2019-02-09T15:11:24.020Z,3.03
2019-02-09T15:13:54.066Z,3.17
2019-02-09T15:16:28.469Z,3.90
2019-02-09T15:18:59.169Z,2.30
2019-02-09T15:21:29.479Z,3.83
2019-02-09T15:23:59.422Z,2.70
2019-02-09T15:26:29.597Z,5.60
2019-02-09T15:28:59.703Z,5.13
2019-02-09T15:31:30.037Z,3.73
2019-02-09T15:34:00.307Z,2.93
2019-02-09T15:36:30.234Z,3.93
2019-02-09T15:39:01.035Z,3.60
2019-02-09T15:41:31.235Z,3.33
2019-02-09T15:44:01.445Z,4.77
2019-02-09T15:46:31.359Z,3.87
2019-02-09T15:49:01.279Z,2.67
2019-02-09T15:51:31.639Z,2.93
2019-02-09T15:54:01.532Z,3.03
2019-02-09T15:56:31.602Z,3.30
2019-02-09T15:59:01.615Z,3.90
2019-02-09T16:01:31.629Z,7.67
2019-02-09T16:04:01.543Z,3.10
2019-02-09T16:06:31.456Z,2.80
2019-02-09T16:09:01.477Z,4.37
2019-02-09T16:11:31.476Z,2.87
2019-02-09T16:14:01.490Z,4.40
2019-02-09T16:16:31.599Z,4.03
2019-02-09T16:19:01.540Z,3.60
2019-02-09T16:21:31.908Z,2.87
2019-02-09T16:24:01.833Z,3.73
2019-02-09T16:26:31.636Z,3.50
2019-02-09T16:29:01.658Z,4.40
2019-02-09T16:31:31.863Z,4.87
2019-02-09T16:34:02.470Z,4.67
2019-02-09T16:36:32.581Z,6.43
2019-02-09T16:39:02.623Z,4.70
2019-02-09T16:41:32.730Z,5.43
2019-02-09T16:44:02.717Z,4.57
2019-02-09T16:46:33.117Z,4.27
2019-02-09T16:49:03.130Z,4.30
2019-02-09T16:51:33.334Z,3.63
2019-02-09T16:54:03.248Z,5.17
2019-02-09T16:56:33.358Z,4.33
2019-02-09T16:59:03.474Z,4.40
2019-02-09T17:01:33.578Z,4.97
2019-02-09T17:04:03.511Z,5.83
2019-02-09T17:06:34.289Z,7.27
2019-02-09T17:09:05.789Z,8.30
2019-02-09T17:11:35.886Z,7.83
2019-02-09T17:14:06.590Z,6.43
2019-02-09T17:16:36.501Z,8.70
2019-02-09T17:19:06.707Z,6.20
2019-02-09T17:21:36.765Z,6.87
2019-02-09T17:24:07.421Z,7.60
2019-02-09T17:26:37.339Z,7.37
2019-02-09T17:29:07.545Z,8.30
2019-02-09T17:31:37.463Z,8.47
2019-02-09T17:34:07.664Z,8.43
2019-02-09T17:36:37.983Z,8.53
2019-02-09T17:39:09.480Z,7.77
2019-02-09T17:41:39.475Z,10.43
2019-02-09T17:44:09.387Z,7.17
2019-02-09T17:46:39.295Z,7.53
2019-02-09T17:49:09.602Z,9.13
2019-02-09T17:51:39.552Z,9.93
2019-02-09T17:54:09.443Z,12.40
2019-02-09T17:56:39.350Z,8.85
2019-02-09T17:59:09.355Z,11.97
2019-02-09T18:01:39.268Z,10.20
2019-02-09T18:04:09.182Z,8.80
2019-02-09T18:06:39.102Z,12.90
2019-02-09T18:09:09.697Z,12.27
2019-02-09T18:11:40.403Z,12.30
2019-02-09T18:14:11.163Z,17.97
2019-02-09T18:16:41.139Z,26.20
2019-02-09T18:19:11.122Z,19.17
2019-02-09T18:21:42.693Z,17.30
2019-02-09T18:24:12.715Z,15.37
2019-02-09T18:26:42.628Z,15.10
2019-02-09T18:29:12.751Z,16.37
2019-02-09T18:31:42.653Z,14.03
2019-02-09T18:34:12.672Z,15.57
2019-02-09T18:36:42.577Z,15.17
2019-02-09T18:39:13.412Z,16.23
2019-02-09T18:41:43.390Z,16.37
2019-02-09T18:44:13.204Z,22.47
2019-02-09T18:46:43.117Z,22.00
2019-02-09T18:49:13.132Z,20.47
2019-02-09T18:51:43.042Z,22.87
2019-02-09T18:54:13.741Z,20.80
2019-02-09T18:56:43.956Z,13.17
2019-02-09T18:59:13.862Z,21.97
2019-02-09T19:01:43.664Z,17.07
2019-02-09T19:04:13.788Z,17.00
2019-02-09T19:06:43.901Z,16.67
2019-02-09T19:09:14.205Z,19.83
2019-02-09T19:11:44.219Z,16.63
2019-02-09T19:14:14.522Z,17.90
2019-02-09T19:16:44.843Z,18.50
2019-02-09T19:19:14.850Z,19.77
2019-02-09T19:21:44.757Z,21.23
2019-02-09T19:24:14.769Z,17.87
2019-02-09T19:26:44.875Z,16.40
2019-02-09T19:29:14.906Z,16.53
2019-02-09T19:31:44.996Z,15.90
2019-02-09T19:34:15.320Z,13.93
2019-02-09T19:36:45.513Z,14.07
2019-02-09T19:39:15.326Z,15.00
2019-02-09T19:41:45.272Z,16.80
2019-02-09T19:44:15.459Z,16.63
2019-02-09T19:46:45.463Z,18.73
2019-02-09T19:49:15.431Z,18.27
2019-02-09T19:51:45.785Z,18.10
2019-02-09T19:54:15.794Z,18.77
2019-02-09T19:56:46.233Z,18.53
2019-02-09T19:59:16.110Z,20.20
2019-02-09T20:01:46.414Z,16.53
2019-02-09T20:04:16.504Z,15.87
2019-02-09T20:06:46.556Z,16.83
2019-02-09T20:09:16.647Z,16.07
2019-02-09T20:11:46.756Z,15.37
2019-02-09T20:14:16.968Z,18.37
2019-02-09T20:16:46.881Z,28.20
2019-02-09T20:19:16.817Z,22.77
2019-02-09T20:21:46.803Z,22.80
2019-02-09T20:24:16.815Z,22.27
2019-02-09T20:26:47.029Z,22.10
2019-02-09T20:29:16.939Z,21.13
2019-02-09T20:31:47.374Z,20.13
2019-02-09T20:34:17.357Z,18.63
2019-02-09T20:36:47.465Z,15.77
2019-02-09T20:39:17.377Z,15.47
2019-02-09T20:41:47.487Z,15.53
2019-02-09T20:44:18.795Z,17.70
2019-02-09T20:46:48.979Z,18.17
2019-02-09T20:49:19.083Z,20.87
2019-02-09T20:51:49.115Z,22.10
2019-02-09T20:54:19.415Z,40.97
2019-02-09T20:56:49.214Z,46.30
2019-02-09T20:59:19.349Z,32.53
2019-02-09T21:01:49.645Z,29.37
2019-02-09T21:04:20.346Z,29.37
2019-02-09T21:06:50.355Z,25.27
2019-02-09T21:09:20.392Z,25.50
2019-02-09T21:11:50.528Z,19.70
2019-02-09T21:14:20.427Z,21.93
2019-02-09T21:16:51.704Z,20.27
2019-02-09T21:19:22.481Z,22.73
2019-02-09T21:21:52.392Z,19.83
2019-02-09T21:24:22.435Z,22.17
2019-02-09T21:26:52.512Z,22.87
2019-02-09T21:29:22.916Z,20.60
2019-02-09T21:31:53.029Z,19.00
2019-02-09T21:34:23.055Z,21.97
2019-02-09T21:36:53.137Z,28.53
2019-02-09T21:39:22.955Z,26.53
2019-02-09T21:41:52.770Z,38.20
2019-02-09T21:44:22.617Z,47.50
2019-02-09T21:46:53.270Z,65.17
2019-02-09T21:49:23.317Z,53.73
2019-02-09T21:51:54.398Z,32.33
2019-02-09T21:54:24.550Z,40.90
2019-02-09T21:56:54.815Z,38.90
2019-02-09T21:59:24.732Z,60.03
2019-02-09T22:01:55.034Z,71.20
2019-02-09T22:04:25.250Z,93.60
2019-02-09T22:06:55.649Z,66.40
2019-02-09T22:09:25.908Z,53.77
2019-02-09T22:11:55.975Z,26.33
2019-02-09T22:14:26.104Z,15.13
2019-02-09T22:16:56.000Z,15.30
2019-02-09T22:19:26.231Z,25.30
2019-02-09T22:21:56.666Z,55.17
2019-02-09T22:24:26.913Z,16.93
2019-02-09T22:26:57.052Z,18.43
2019-02-09T22:29:27.759Z,17.90
2019-02-09T22:31:57.739Z,14.17
2019-02-09T22:34:27.662Z,10.70
2019-02-09T22:36:57.757Z,13.73
2019-02-09T22:39:28.266Z,10.17
2019-02-09T22:41:58.579Z,10.43
2019-02-09T22:44:28.439Z,13.60
2019-02-09T22:46:58.722Z,12.30
2019-02-09T22:49:28.798Z,11.07
2019-02-09T22:51:58.856Z,12.17
2019-02-09T22:54:28.918Z,15.10
2019-02-09T22:56:59.274Z,11.47
2019-02-09T22:59:29.237Z,11.43
2019-02-09T23:01:59.466Z,8.93
2019-02-09T23:04:39.480Z,8.83
2019-02-09T23:07:09.889Z,9.73
2019-02-09T23:09:39.901Z,11.00
2019-02-09T23:12:09.814Z,14.40
2019-02-09T23:14:40.119Z,11.93
2019-02-09T23:17:10.032Z,17.40
2019-02-09T23:19:39.949Z,10.83
2019-02-09T23:22:10.572Z,9.03
2019-02-09T23:24:40.468Z,10.23
2019-02-09T23:27:10.471Z,13.07
2019-02-09T23:29:40.390Z,14.87
2019-02-09T23:32:10.303Z,10.10
2019-02-09T23:34:40.212Z,12.47
2019-02-09T23:37:10.390Z,12.83
2019-02-09T23:39:40.446Z,12.63
2019-02-09T23:42:10.345Z,12.20
2019-02-09T23:44:40.405Z,15.80
2019-02-09T23:47:10.371Z,16.07
2019-02-09T23:49:40.304Z,13.57
2019-02-09T23:52:10.492Z,13.77
2019-02-09T23:54:40.406Z,13.70
2019-02-09T23:57:10.625Z,13.17
2019-02-09T23:59:40.734Z,13.10
